Tiempo atmosférico en la estación meteorológica de La Vall de Boi, Lleida (1092 m.)



Fecha
DESCASC
Temp. máxima en grados centígrados (hora)
DESCASC
Temp. mínima en grados centígrados (hora)
DESCASC
Temp. media en grados centígrados
DESCASC
Racha de viento máxima en m/sg (hora)
DESCASC
Velocidad máxima media en intervalos de 10 minutos(hora)
DESCASC
Precipitaciones diarias en mm
DESCASC
Precipitaciones de 00:00 a 06:00 en mm
DESCASC
Precipitaciones de 06:00 a 12:00 en mm
DESCASC
Precipitaciones de 12:00 a 18:00 en mm
DESCASC
Precipitaciones de 18:00 a 24:00 en mm
DESCASC

Gráficas

Temp. máximas Temp. mínimas Temp. medias Precipitaciones Rachas de viento máximas Velocidades máximas media en intervalos de 10 minutos

Datos horarios

Fecha y hora oficial Temperatura (ºC) Velocidad del viento (km/h) Dirección del viento Racha (km/h) Dirección de racha Precipitación (mm) Presión (hPa) Tendencia (hPa) Humedad (%)
2020-01-23 23:00:00 0.2 3 Este 5 Sur 0 -- -- 100
2020-01-23 22:00:00 -0.1 0 Calma 6 Este 0 -- -- 100
2020-01-23 21:00:00 -0.8 0 Calma 4 Norte 0 -- -- 100
2020-01-23 20:00:00 -0.3 0 Calma 4 Sur 0 -- -- 98
2020-01-23 19:00:00 0.9 0 Calma 4 Sudeste 0 -- -- 95
2020-01-23 18:00:00 2.7 2 Sudeste 10 Noroeste 0 -- -- 92
2020-01-23 17:00:00 4.2 6 Oeste 17 Sudoeste 0 -- -- 90
2020-01-23 16:00:00 5 8 Sudoeste 21 Sudoeste 0.2 -- -- 88
2020-01-23 15:00:00 3.8 12 Oeste 24 Oeste 0.8 -- -- 93
2020-01-23 14:00:00 4.9 9 Sudoeste 27 Sudoeste 1 -- -- 90
2020-01-23 13:00:00 5.3 3 Sudoeste 10 Sudeste 0.4 -- -- 92
2020-01-23 12:00:00 4.3 3 Oeste 8 Sudeste 0 -- -- 97
2020-01-23 11:00:00 2.5 3 Nordeste 11 Nordeste 0.2 -- -- 99
2020-01-23 10:00:00 2.3 8 Nordeste 15 Nordeste 3.2 -- -- 97
2020-01-23 09:00:00 3 3 Este 12 Norte 4 -- -- 100
2020-01-23 08:00:00 3.3 5 Este 19 Oeste 5.6 -- -- 100
2020-01-23 07:00:00 2.9 10 Sudoeste 21 Sudoeste 1 -- -- 100
2020-01-23 06:00:00 2.2 5 Sudoeste 12 Sudoeste 0.8 -- -- 100
2020-01-23 05:00:00 2.2 5 Nordeste 9 Sudeste 0.2 -- -- 100
2020-01-23 04:00:00 2.2 5 Sudeste 8 Sur 0.6 -- -- 100
2020-01-23 03:00:00 2.4 3 Norte 11 Norte 0.4 -- -- 99
2020-01-23 02:00:00 2.7 2 Nordeste 22 Sudoeste 1 -- -- 98
2020-01-23 01:00:00 3.4 17 Oeste 41 Oeste 1.6 -- -- 95
2020-01-23 00:00:00 3.1 4 Noroeste 14 Norte 0.2 -- -- 100
2020-01-22 23:00:00 3.5 6 Oeste 26 Nordeste 1 -- -- 100
2020-01-22 22:00:00 2.3 8 Norte 20 Sudeste 0.2 -- -- 100
2020-01-22 21:00:00 1.4 6 Noroeste 14 Sur 0.8 -- -- 100
2020-01-22 20:00:00 1.3 8 Norte 16 Norte 0.4 -- -- 100
2020-01-22 19:00:00 0.8 6 Sur 13 Este 0.6 -- -- 100
2020-01-22 18:00:00 0.6 6 Oeste 15 Sur 0.4 -- -- 100
2020-01-22 17:00:00 0.6 5 Norte 9 Nordeste 3.4 -- -- 99
2020-01-22 16:00:00 0.7 2 Sudoeste 5 Sudeste 4.2 -- -- 95
2020-01-22 15:00:00 1.9 0 Calma 8 Este 6.4 -- -- 89
2020-01-22 14:00:00 4.1 5 Nordeste 18 Este 1.4 -- -- 87
2020-01-22 13:00:00 4.6 0 Calma 8 Sur 0 -- -- 89
2020-01-22 12:00:00 4.2 3 Sudeste 6 Sudeste 0 -- -- 89
2020-01-22 11:00:00 2.1 2 Sudoeste 12 Norte 0 -- -- 100
2020-01-22 10:00:00 1.2 3 Este 10 Sudeste 0 -- -- 100
2020-01-22 09:00:00 0.7 3 Oeste 8 Noroeste 0 -- -- 100
2020-01-22 08:00:00 0.6 3 Nordeste 6 Sudoeste 1.2 -- -- 100
2020-01-22 07:00:00 0.5 2 Sur 8 Oeste 1 -- -- 99
2020-01-22 06:00:00 0.5 4 Sudoeste 8 Oeste 2.8 -- -- 99
2020-01-22 05:00:00 0.3 0 Calma 4 Noroeste 3.8 -- -- 98
2020-01-22 04:00:00 0.4 2 Este 16 Oeste 3.8 -- -- 96
2020-01-22 03:00:00 1.1 11 Oeste 35 Oeste 6.8 -- -- 93
2020-01-22 02:00:00 4.1 14 Sudoeste 24 Oeste 2 -- -- 87
2020-01-22 01:00:00 3.6 5 Este 12 Norte 0 -- -- 72
2020-01-22 00:00:00 3.2 5 Noroeste 11 Sudeste 0 -- -- 73
2020-01-21 23:00:00 2.7 5 Este 10 Noroeste 0 -- -- 76
2020-01-21 22:00:00 3.4 4 Noroeste 12 Este 0 -- -- 74
2020-01-21 21:00:00 3.6 3 Nordeste 10 Sudeste 0 -- -- 70
2020-01-21 20:00:00 4.6 6 Noroeste 10 Sudeste 0 -- -- 67
2020-01-21 19:00:00 7.6 5 Nordeste 20 Sudeste 0 -- -- 55
2020-01-21 18:00:00 9.3 6 Sur 44 Sudeste 0 -- -- 45
2020-01-21 17:00:00 9.7 13 Sudeste 48 Norte 0 -- -- 48
2020-01-21 16:00:00 9.7 10 Nordeste 44 Nordeste 0 -- -- 50
2020-01-21 15:00:00 9.3 18 Norte 53 Noroeste 0.2 -- -- 53
2020-01-21 14:00:00 8.7 11 Este 50 Sudeste 0 -- -- 62
2020-01-21 13:00:00 10.3 13 Sudeste 58 Este 0 -- -- 46
2020-01-21 12:00:00 10.4 13 Sudeste 41 Este 0 -- -- 44
2020-01-21 11:00:00 10.3 11 Este 44 Sudeste 0 -- -- 42
2020-01-21 10:00:00 9.9 13 Este 39 Noroeste 0 -- -- 41
2020-01-21 09:00:00 8.7 13 Sudoeste 40 Este 0 -- -- 43
2020-01-21 08:00:00 8.5 9 Sudeste 40 Sur 0 -- -- 42
2020-01-21 07:00:00 7.3 18 Nordeste 47 Nordeste 0 -- -- 47
2020-01-21 06:00:00 3.6 4 Noroeste 27 Oeste 0 -- -- 59
2020-01-21 05:00:00 2.1 8 Sudoeste 23 Sudoeste 0 -- -- 64
2020-01-21 04:00:00 1.4 6 Sudeste 12 Este 0 -- -- 69
2020-01-21 03:00:00 0.9 3 Sudeste 9 Sudeste 0 -- -- 71
2020-01-21 02:00:00 0.9 2 Sudeste 8 Este 0 -- -- 71
2020-01-21 01:00:00 0.9 2 Noroeste 8 Sudeste 0 -- -- 71
2020-01-21 00:00:00 0.8 0 Calma 8 Sudeste 0 -- -- 71
2020-01-20 23:00:00 0.8 3 Este 7 Sudoeste 0 -- -- 67
2020-01-20 22:00:00 2.1 3 Sudoeste 22 Oeste 0 -- -- 60
2020-01-20 21:00:00 1 3 Sur 10 Sudeste 0 -- -- 64
2020-01-20 20:00:00 0.8 3 Sudeste 9 Este 0 -- -- 65
2020-01-20 19:00:00 1.9 4 Este 9 Sur 0 -- -- 60
2020-01-20 18:00:00 4.7 2 Sur 19 Oeste 0 -- -- 49
2020-01-20 17:00:00 5.9 12 Oeste 19 Sudoeste 0 -- -- 41
2020-01-20 16:00:00 6.6 12 Oeste 18 Oeste 0 -- -- 38
2020-01-20 15:00:00 6.6 4 Este 9 Este 0 -- -- 31
2020-01-20 14:00:00 6.3 4 Este 19 Sudoeste 0 -- -- 29
2020-01-20 13:00:00 4 10 Sudoeste 18 Oeste 0 -- -- 30
2020-01-20 12:00:00 2.6 2 Sudoeste 8 Este 0 -- -- 29
2020-01-20 11:00:00 1.4 5 Sudoeste 9 Sudoeste 0 -- -- 31
2020-01-20 10:00:00 0.2 0 Calma 8 Este 0 -- -- 35
2020-01-20 09:00:00 0 5 Nordeste 24 Sudoeste 0 -- -- 32
2020-01-20 08:00:00 -0.6 14 Sudoeste 22 Sudoeste 0 -- -- 35
2020-01-20 07:00:00 0.7 4 Norte 26 Este 0 -- -- 22
2020-01-20 06:00:00 0.9 14 Este 47 Este 0 -- -- 25
2020-01-20 05:00:00 0.6 19 Este 45 Este 0 -- -- 31
2020-01-20 04:00:00 0.7 19 Este 51 Nordeste 0 -- -- 28
2020-01-20 03:00:00 0.8 25 Este 50 Nordeste 0 -- -- 33
2020-01-20 02:00:00 1 22 Nordeste 55 Nordeste 0 -- -- 30
2020-01-20 01:00:00 0.6 22 Nordeste 66 Nordeste 0 -- -- 35
2020-01-20 00:00:00 0.5 31 Nordeste 66 Nordeste 0 -- -- 39
2020-01-19 23:00:00 0.7 26 Nordeste 65 Este 0 -- -- 39
2020-01-19 22:00:00 0.5 18 Este 48 Este 0 -- -- 39
2020-01-19 21:00:00 0.4 23 Este 54 Este 0 -- -- 39
2020-01-19 20:00:00 0.8 24 Este 53 Este 0 -- -- 39
2020-01-19 19:00:00 1.1 24 Este 61 Este 0 -- -- 36
2020-01-19 18:00:00 1.5 26 Nordeste 65 Este 0 -- -- 35
2020-01-19 17:00:00 2.5 30 Este 65 Este 0 -- -- 31
2020-01-19 16:00:00 3.7 30 Nordeste 54 Nordeste 0 -- -- 31
2020-01-19 15:00:00 4.6 23 Este 51 Nordeste 0 -- -- 34
2020-01-19 14:00:00 5.4 28 Este 63 Este 0 -- -- 31
2020-01-19 13:00:00 5.5 26 Este 55 Este 0 -- -- 34
2020-01-19 12:00:00 5.6 28 Este 50 Este 0 -- -- 32
2020-01-19 11:00:00 5.8 20 Este 45 Nordeste 0 -- -- 38
2020-01-19 10:00:00 4.7 17 Este 60 Nordeste 0 -- -- 33
2020-01-19 09:00:00 5 24 Nordeste 53 Este 0 -- -- 41
2020-01-19 08:00:00 5.7 23 Este 51 Este 0 -- -- 48
2020-01-19 07:00:00 6.1 25 Nordeste 51 Nordeste 0 -- -- 49
2020-01-19 06:00:00 2 4 Sudoeste 18 Sudoeste 0 -- -- 73
2020-01-19 05:00:00 1.4 3 Oeste 8 Sudoeste 0 -- -- 76
2020-01-19 04:00:00 1.3 4 Nordeste 9 Nordeste 0 -- -- 75
2020-01-19 03:00:00 1.4 0 Calma 4 Sudeste 0 -- -- 76
2020-01-19 02:00:00 2 0 Calma 10 Nordeste 0 -- -- 72
2020-01-19 01:00:00 2.9 5 Sudoeste 23 Oeste 0 -- -- 63
2020-01-19 00:00:00 1.1 0 Calma 4 Sudoeste 0 -- -- 76
2020-01-18 23:00:00 0.9 2 Sur 4 Sur 0 -- -- 78
2020-01-18 22:00:00 0.9 2 Norte 5 Sudeste 0 -- -- 77
2020-01-18 21:00:00 1.4 0 Calma 4 Sudeste 0 -- -- 73
2020-01-18 20:00:00 2.4 0 Calma 5 Sudeste 0 -- -- 69
2020-01-18 19:00:00 4.5 8 Oeste 15 Oeste 0 -- -- 56
2020-01-18 18:00:00 5.8 3 Norte 19 Oeste 0 -- -- 51
2020-01-18 17:00:00 7.4 13 Sudoeste 26 Sudoeste 0 -- -- 46
2020-01-18 16:00:00 9 10 Sudoeste 23 Oeste 0 -- -- 38
2020-01-18 15:00:00 9.3 12 Sudoeste 23 Sudoeste 0 -- -- 37
2020-01-18 14:00:00 8.3 3 Sur 6 Sur 0 -- -- 35
2020-01-18 13:00:00 5 2 Sur 5 Nordeste 0 -- -- 44
2020-01-18 12:00:00 3.4 0 Calma 8 Oeste 0 -- -- 54
2020-01-18 11:00:00 1 2 Sur 9 Sudoeste 0 -- -- 66
2020-01-18 10:00:00 -0.5 4 Sudoeste 9 Sudoeste 0 -- -- 73
2020-01-18 09:00:00 -1.5 0 Calma 4 Este 0 -- -- 80
2020-01-18 08:00:00 -1.6 2 Norte 6 Este 0 -- -- 75
2020-01-18 07:00:00 -1.8 3 Sudeste 10 Este 0 -- -- 75
2020-01-18 06:00:00 -1.9 5 Sudeste 27 Sudoeste 0 -- -- 75
2020-01-18 05:00:00 -3.8 0 Calma 4 Este 0 -- -- 88
2020-01-18 04:00:00 -4.1 0 Calma 4 Norte 0 -- -- 84
2020-01-18 03:00:00 -3.7 2 Sur 5 Sudeste 0 -- -- 82
2020-01-18 02:00:00 -2.7 3 Sur 7 Oeste 0 -- -- 77
2020-01-18 01:00:00 -0.8 3 Sudoeste 33 Oeste 0 -- -- 69
2020-01-18 00:00:00 1.6 18 Oeste 32 Oeste 0 -- -- 52
2020-01-17 23:00:00 4.8 19 Nordeste 37 Este 0 -- -- 36
2020-01-17 22:00:00 -0.3 3 Noroeste 13 Norte 0 -- -- 67
2020-01-17 21:00:00 0.3 3 Sudoeste 11 Nordeste 0 -- -- 72
2020-01-17 20:00:00 2.7 3 Sudoeste 14 Norte 0 -- -- 59
2020-01-17 19:00:00 4.2 8 Este 23 Nordeste 0 -- -- 48
2020-01-17 18:00:00 3 3 Oeste 16 Este 0 -- -- 70
2020-01-17 17:00:00 5.1 4 Sudoeste 22 Norte 0.2 -- -- 69
2020-01-17 16:00:00 6.1 15 Nordeste 33 Nordeste 0 -- -- 62
2020-01-17 15:00:00 8.1 10 Sudoeste 28 Sudoeste 0.2 -- -- 68
2020-01-17 14:00:00 6.5 21 Sudoeste 36 Sudoeste 0.4 -- -- 74
2020-01-17 13:00:00 8 13 Sudoeste 27 Sudoeste 0 -- -- 67
2020-01-17 12:00:00 4.8 4 Sur 9 Oeste 0 -- -- 92
2020-01-17 11:00:00 2.2 2 Este 8 Noroeste 0 -- -- 100
2020-01-17 10:00:00 0.4 2 Nordeste 5 Sur 0 -- -- 100
2020-01-17 09:00:00 0.5 0 Calma 8 Sudoeste 0 -- -- 98
2020-01-17 08:00:00 1.6 0 Calma 4 Norte 0 -- -- 98
2020-01-17 07:00:00 2 3 Nordeste 8 Sudeste 0 -- -- 97
2020-01-17 06:00:00 2.2 0 Calma 4 Oeste 0 -- -- 96
2020-01-17 05:00:00 2.4 6 Oeste 15 Norte 0.2 -- -- 92
2020-01-17 04:00:00 1.8 0 Calma 5 Este 0 -- -- 89
2020-01-17 03:00:00 1.8 0 Calma 6 Este 0 -- -- 89
2020-01-17 02:00:00 1.7 2 Noroeste 8 Sudeste 0 -- -- 86
2020-01-17 01:00:00 2.4 2 Sudoeste 7 Norte 0 -- -- 85
2020-01-17 00:00:00 2.9 4 Norte 7 Noroeste 0 -- -- 84
2020-01-16 23:00:00 2.8 2 Sudeste 5 Norte 0 -- -- 83
2020-01-16 22:00:00 2.8 3 Oeste 8 Sur 0 -- -- 83
2020-01-16 21:00:00 2.1 3 Sudeste 6 Noroeste 0 -- -- 84
2020-01-16 20:00:00 1.4 3 Nordeste 5 Sudeste 0 -- -- 84
2020-01-16 19:00:00 2.5 0 Calma 4 Sudeste 0 -- -- 80
2020-01-16 18:00:00 4.9 2 Sudoeste 4 Sur 0 -- -- 68
2020-01-16 17:00:00 9.4 3 Sur 17 Sudoeste 0 -- -- 54
2020-01-16 16:00:00 12.8 12 Sudoeste 20 Sudoeste 0 -- -- 44
2020-01-16 15:00:00 12.8 11 Sudoeste 17 Sudoeste 0 -- -- 44
2020-01-16 14:00:00 11.6 4 Sudeste 6 Sur 0 -- -- 45
2020-01-16 13:00:00 9 2 Sudeste 5 Sudeste 0 -- -- 50
2020-01-16 12:00:00 4.8 3 Sudeste 5 Sudeste 0 -- -- 68
2020-01-16 11:00:00 -1.5 0 Calma 5 Sudoeste 0 -- -- 100
2020-01-16 10:00:00 -4.9 0 Calma 4 Este 0 -- -- 95
2020-01-16 09:00:00 -5.4 0 Calma 4 Norte 0 -- -- 95
2020-01-16 08:00:00 -5.4 0 Calma 4 Este 0 -- -- 94
2020-01-16 07:00:00 -5.2 0 Calma 4 Este 0 -- -- 94
2020-01-16 06:00:00 -4.7 0 Calma 5 Sudeste 0 -- -- 95
2020-01-16 05:00:00 -4.6 0 Calma 2 Norte 0 -- -- 94
2020-01-16 04:00:00 -4.2 0 Calma 4 Sudeste 0 -- -- 93
2020-01-16 03:00:00 -3.7 2 Norte 4 Nordeste 0 -- -- 93
2020-01-16 02:00:00 -3.1 3 Noroeste 4 Norte 0 -- -- 94
2020-01-16 01:00:00 -2.9 0 Calma 6 Este 0 -- -- 91
2020-01-16 00:00:00 -2.3 0 Calma 4 Sudeste 0 -- -- 90
2020-01-15 23:00:00 -1.8 0 Calma 5 Sur 0 -- -- 89
2020-01-15 22:00:00 -1.1 4 Nordeste 6 Norte 0 -- -- 87
2020-01-15 21:00:00 -0.7 0 Calma 5 Sudeste 0 -- -- 85
2020-01-15 20:00:00 0.1 0 Calma 5 Norte 0 -- -- 81
2020-01-15 19:00:00 1.6 2 Oeste 4 Sur 0 -- -- 73
2020-01-15 18:00:00 4.6 0 Calma 6 Este 0 -- -- 62
2020-01-15 17:00:00 9.1 0 Calma 6 Sur 0 -- -- 49
2020-01-15 16:00:00 12.8 2 Sudeste 16 Sudoeste 0 -- -- 40
2020-01-15 15:00:00 12.1 4 Sur 9 Sur 0 -- -- 38
2020-01-15 14:00:00 10.5 5 Sudoeste 8 Sudoeste 0 -- -- 36
2020-01-15 13:00:00 7.4 2 Sur 6 Oeste 0 -- -- 47
2020-01-15 12:00:00 3.3 0 Calma 6 Sudeste 0 -- -- 58
2020-01-15 11:00:00 -1.8 3 Sur 6 Sudeste 0 -- -- 79
2020-01-15 10:00:00 -4.2 0 Calma 12 Sudoeste 0 -- -- 84
2020-01-15 09:00:00 -5.4 2 Nordeste 8 Sudeste 0 -- -- 89
2020-01-15 08:00:00 -5.9 2 Norte 7 Sudoeste 0 -- -- 89
2020-01-15 07:00:00 -5.8 0 Calma 4 Oeste 0 -- -- 88
2020-01-15 06:00:00 -5.7 0 Calma 5 Sudeste 0 -- -- 87
2020-01-15 05:00:00 -5.6 0 Calma 5 Norte 0 -- -- 88
2020-01-15 04:00:00 -5.1 2 Noroeste 4 Norte 0 -- -- 87
2020-01-15 03:00:00 -5.2 2 Norte 11 Sudoeste 0 -- -- 85
2020-01-15 02:00:00 -5.1 0 Calma 3 Noroeste 0 -- -- 87
2020-01-15 01:00:00 -4.9 0 Calma 3 Este 0 -- -- 88
2020-01-15 00:00:00 -4.4 0 Calma 2 Este 0 -- -- 87
2020-01-14 23:00:00 -3.8 0 Calma 5 Sudoeste 0 -- -- 86
2020-01-14 22:00:00 -3.2 0 Calma 2 Norte 0 -- -- 85
2020-01-14 21:00:00 -2.2 0 Calma 3 Noroeste 0 -- -- 81
2020-01-14 20:00:00 -1.2 0 Calma 2 Nordeste 0 -- -- 74
2020-01-14 19:00:00 0.7 0 Calma 2 Sudeste 0 -- -- 67
2020-01-14 18:00:00 3.5 0 Calma 3 Este 0 -- -- 57
2020-01-14 17:00:00 8.3 0 Calma 9 Sudoeste 0 -- -- 40
2020-01-14 16:00:00 12 4 Sur 8 Sudoeste 0 -- -- 33
2020-01-14 15:00:00 12.8 3 Sur 14 Sudoeste 0 -- -- 26
2020-01-14 14:00:00 11.4 5 Sudeste 8 Sur 0 -- -- 28
2020-01-14 13:00:00 8.5 3 Sudeste 6 Sudeste 0 -- -- 33
2020-01-14 12:00:00 4.4 3 Sudeste 5 Sudeste 0 -- -- 55
2020-01-14 11:00:00 -1.3 0 Calma 4 Sudoeste 0 -- -- 76
2020-01-14 10:00:00 -3.8 0 Calma 6 Sudoeste 0 -- -- 80
2020-01-14 09:00:00 -5.8 0 Calma 5 Sudeste 0 -- -- 88
2020-01-14 08:00:00 -6 0 Calma 6 Sudeste 0 -- -- 88
2020-01-14 07:00:00 -5.5 0 Calma 4 Sudeste 0 -- -- 86
2020-01-14 06:00:00 -5.1 0 Calma 5 Sudeste 0 -- -- 89
2020-01-14 05:00:00 -5.1 0 Calma 5 Norte 0 -- -- 86
2020-01-14 04:00:00 -5 0 Calma 5 Sur 0 -- -- 85
2020-01-14 03:00:00 -4.7 0 Calma 5 Norte 0 -- -- 85
2020-01-14 02:00:00 -4.4 0 Calma 4 Norte 0 -- -- 85
2020-01-14 01:00:00 -3.9 2 Norte 6 Sudeste 0 -- -- 82
2020-01-14 00:00:00 -3.7 0 Calma 4 Norte 0 -- -- 83
2020-01-13 23:00:00 -3.1 0 Calma 4 Sudeste 0 -- -- 81
2020-01-13 22:00:00 -2.8 2 Sudeste 5 Este 0 -- -- 82
2020-01-13 21:00:00 -2.2 2 Norte 5 Noroeste 0 -- -- 79
2020-01-13 20:00:00 -1.1 2 Nordeste 6 Sudeste 0 -- -- 75
2020-01-13 19:00:00 0.7 4 Noroeste 8 Sudoeste 0 -- -- 67
2020-01-13 18:00:00 3.9 0 Calma 5 Este 0 -- -- 56
2020-01-13 17:00:00 7.7 2 Sudeste 12 Sudoeste 0 -- -- 47
2020-01-13 16:00:00 9.7 9 Sudoeste 15 Sudoeste 0 -- -- 30
2020-01-13 15:00:00 11.3 4 Sudeste 12 Sur 0 -- -- 29
2020-01-13 14:00:00 10.4 2 Sudoeste 5 Sudoeste 0 -- -- 26
2020-01-13 13:00:00 6.7 2 Sudeste 6 Sudeste 0 -- -- 37
2020-01-13 12:00:00 2.2 0 Calma 5 Sur 0 -- -- 57
2020-01-13 11:00:00 -2.6 0 Calma 4 Sur 0 -- -- 84
2020-01-13 10:00:00 -5.5 0 Calma 4 Norte 0 -- -- 89
2020-01-13 09:00:00 -6.7 0 Calma 4 Norte 0 -- -- 90
2020-01-13 08:00:00 -6.8 0 Calma 4 Sudeste 0 -- -- 90
2020-01-13 07:00:00 -6.5 0 Calma 4 Sudeste 0 -- -- 89
2020-01-13 06:00:00 -6.1 2 Nordeste 5 Sudeste 0 -- -- 87
2020-01-13 05:00:00 -5.9 0 Calma 4 Este 0 -- -- 85
2020-01-13 04:00:00 -5.8 0 Calma 4 Noroeste 0 -- -- 86
2020-01-13 03:00:00 -5.7 0 Calma 4 Norte 0 -- -- 88
2020-01-13 02:00:00 -5.3 0 Calma 4 Sudeste 0 -- -- 87
2020-01-13 01:00:00 -4.9 0 Calma 5 Sudeste 0 -- -- 84
2020-01-13 00:00:00 -4.3 0 Calma 3 Oeste 0 -- -- 84
2020-01-12 23:00:00 -3.7 0 Calma 3 Sudeste 0 -- -- 83
2020-01-12 22:00:00 -3 0 Calma 3 Este 0 -- -- 80
2020-01-12 21:00:00 -2.2 0 Calma 4 Este 0 -- -- 77
2020-01-12 20:00:00 -1.3 0 Calma 5 Sudeste 0 -- -- 70
2020-01-12 19:00:00 0.4 0 Calma 4 Sudeste 0 -- -- 60
2020-01-12 18:00:00 3.5 0 Calma 6 Nordeste 0 -- -- 49
2020-01-12 17:00:00 7.5 2 Este 8 Sur 0 -- -- 36
2020-01-12 16:00:00 12 6 Sur 21 Oeste 0 -- -- 27
2020-01-12 15:00:00 12.7 7 Sur 14 Sudoeste 0 -- -- 22
2020-01-12 14:00:00 11.7 5 Sur 10 Sur 0 -- -- 26
2020-01-12 13:00:00 8.2 4 Sudeste 6 Sudeste 0 -- -- 31
2020-01-12 12:00:00 3.3 2 Sudeste 4 Sudeste 0 -- -- 43
2020-01-12 11:00:00 -4 0 Calma 5 Sudoeste 0 -- -- 89
2020-01-12 10:00:00 -6.2 0 Calma 5 Norte 0 -- -- 86
2020-01-12 09:00:00 -6.7 2 Este 6 Norte 0 -- -- 86
2020-01-12 08:00:00 -6.6 2 Oeste 4 Noroeste 0 -- -- 87
2020-01-12 07:00:00 -6.6 0 Calma 3 Norte 0 -- -- 87
2020-01-12 06:00:00 -6.3 0 Calma 4 Norte 0 -- -- 87
2020-01-12 05:00:00 -6 0 Calma 4 Norte 0 -- -- 84
2020-01-12 04:00:00 -5.6 0 Calma 5 Sudeste 0 -- -- 81
2020-01-12 03:00:00 -5.1 0 Calma 3 Sudeste 0 -- -- 81
2020-01-12 02:00:00 -5.1 0 Calma 4 Sudeste 0 -- -- 80
2020-01-12 01:00:00 -4.7 0 Calma 3 Norte 0 -- -- 79
2020-01-12 00:00:00 -4.1 0 Calma 4 Este 0 -- -- 77
2020-01-11 23:00:00 -3.7 0 Calma 5 Sudeste 0 -- -- 75
2020-01-11 22:00:00 -2.7 0 Calma 6 Sudeste 0 -- -- 64
2020-01-11 21:00:00 -2.1 0 Calma 7 Nordeste 0 -- -- 66
2020-01-11 20:00:00 -0.9 3 Este 9 Sudeste 0 -- -- 62
2020-01-11 19:00:00 0.4 2 Noroeste 6 Sudeste 0 -- -- 55
2020-01-11 18:00:00 3.5 4 Este 6 Nordeste 0 -- -- 46
2020-01-11 17:00:00 8.9 3 Sur 15 Sudoeste 0 -- -- 30
2020-01-11 16:00:00 13.4 5 Sudoeste 18 Sudeste 0 -- -- 17
2020-01-11 15:00:00 12.9 10 Sudoeste 21 Sudoeste 0 -- -- 23
2020-01-11 14:00:00 11.8 16 Sudoeste 23 Sudoeste 0 -- -- 25
2020-01-11 13:00:00 9.5 5 Sudoeste 15 Sudoeste 0 -- -- 28
2020-01-11 12:00:00 5.2 0 Calma 5 Sur 0 -- -- 31
2020-01-11 11:00:00 -2.2 0 Calma 7 Sudeste 0 -- -- 66
2020-01-11 10:00:00 -3.8 2 Sur 7 Sudeste 0 -- -- 71
2020-01-11 09:00:00 -3.5 0 Calma 7 Nordeste 0 -- -- 62
2020-01-11 08:00:00 -2.7 3 Este 5 Oeste 0 -- -- 62
2020-01-11 07:00:00 -1 0 Calma 12 Sudoeste 0 -- -- 51
2020-01-11 06:00:00 3.2 5 Nordeste 29 Nordeste 0 -- -- 36
2020-01-11 05:00:00 2.1 5 Sudoeste 34 Este 0 -- -- 38
2020-01-11 04:00:00 4.4 13 Nordeste 26 Este 0 -- -- 23
2020-01-11 03:00:00 5.1 4 Nordeste 32 Norte 0 -- -- 26
2020-01-11 02:00:00 6.6 12 Este 34 Este 0 -- -- 22
2020-01-11 01:00:00 7.4 14 Nordeste 45 Norte 0 -- -- 18
2020-01-11 00:00:00 6.9 15 Nordeste 45 Este 0 -- -- 22
2020-01-10 23:00:00 6.9 17 Este 45 Este 0 -- -- 24
2020-01-10 22:00:00 6.6 17 Nordeste 47 Nordeste 0 -- -- 29
2020-01-10 21:00:00 6.7 19 Nordeste 49 Nordeste 0 -- -- 32
2020-01-10 20:00:00 6.4 20 Nordeste 40 Este 0 -- -- 37
2020-01-10 19:00:00 6.5 14 Nordeste 41 Nordeste 0 -- -- 40
2020-01-10 18:00:00 7 8 Norte 30 Norte 0 -- -- 40
2020-01-10 17:00:00 8 10 Nordeste 25 Nordeste 0 -- -- 41
2020-01-10 16:00:00 9.6 10 Este 25 Este 0 -- -- 40
2020-01-10 15:00:00 9.8 10 Nordeste 31 Este 0 -- -- 41
2020-01-10 14:00:00 10.3 9 Nordeste 24 Nordeste 0 -- -- 38
2020-01-10 13:00:00 9.7 11 Este 26 Nordeste 0 -- -- 40
2020-01-10 12:00:00 9 14 Este 28 Nordeste 0 -- -- 39
2020-01-10 11:00:00 6.7 15 Este 36 Este 0 -- -- 41
2020-01-10 10:00:00 5.6 9 Nordeste 33 Este 0 -- -- 46
2020-01-10 09:00:00 5.9 19 Nordeste 36 Nordeste 0 -- -- 44
2020-01-10 08:00:00 5.5 4 Norte 25 Este 0 -- -- 51
2020-01-10 07:00:00 5.4 5 Nordeste 31 Nordeste 0 -- -- 59
2020-01-10 06:00:00 6.4 11 Nordeste 36 Este 0 -- -- 55
2020-01-10 05:00:00 7.4 16 Este 39 Nordeste 0 -- -- 48
2020-01-10 04:00:00 2.7 4 Nordeste 15 Este 0 -- -- 84
2020-01-10 03:00:00 2.3 3 Este 9 Este 0 -- -- 85
2020-01-10 02:00:00 2 3 Sudoeste 8 Sudoeste 0 -- -- 85
2020-01-10 01:00:00 3.1 2 Nordeste 6 Sudeste 0 -- -- 82
2020-01-10 00:00:00 3 0 Calma 8 Sudeste 0 -- -- 83
2020-01-09 23:00:00 3.1 0 Calma 6 Oeste 0 -- -- 81
2020-01-09 22:00:00 2.7 3 Nordeste 8 Sudeste 0 -- -- 82
2020-01-09 21:00:00 2.1 2 Sur 8 Sudeste 0 -- -- 82
2020-01-09 20:00:00 3.2 2 Sudeste 10 Sudeste 0 -- -- 77
2020-01-09 19:00:00 4.3 2 Oeste 5 Oeste 0 -- -- 72
2020-01-09 18:00:00 5.6 0 Calma 7 Este 0 -- -- 66
2020-01-09 17:00:00 10.4 8 Oeste 20 Sudoeste 0 -- -- 49
2020-01-09 16:00:00 12.5 12 Sudoeste 21 Sudoeste 0 -- -- 42
2020-01-09 15:00:00 12.8 13 Sudoeste 25 Sudoeste 0 -- -- 42
2020-01-09 14:00:00 11.8 13 Oeste 23 Oeste 0 -- -- 47
2020-01-09 13:00:00 9.4 4 Sur 7 Sudeste 0 -- -- 59
2020-01-09 12:00:00 5.2 2 Sur 7 Sur 0 -- -- 78
2020-01-09 11:00:00 -1.2 0 Calma 3 Sudeste 0 -- -- 100
2020-01-09 10:00:00 -2.7 0 Calma 4 Sudoeste 0 -- -- 99
2020-01-09 09:00:00 -3.3 0 Calma 3 Sudeste 0 -- -- 98
2020-01-09 08:00:00 -3.3 0 Calma 4 Sudeste 0 -- -- 97
2020-01-09 07:00:00 -3 0 Calma 4 Nordeste 0 -- -- 97
2020-01-09 06:00:00 -3 0 Calma 4 Sudeste 0 -- -- 97
2020-01-09 05:00:00 -2.6 2 Norte 4 Norte 0 -- -- 97
2020-01-09 04:00:00 -2.4 0 Calma 4 Nordeste 0 -- -- 96
2020-01-09 03:00:00 -2.2 0 Calma 3 Norte 0 -- -- 95
2020-01-09 02:00:00 -1.9 0 Calma 3 Sudeste 0 -- -- 94
2020-01-09 01:00:00 -1.7 0 Calma 4 Este 0 -- -- 93
2020-01-09 00:00:00 -1.1 0 Calma 2 Este 0 -- -- 92
2020-01-08 23:00:00 -0.8 0 Calma 4 Sudoeste 0 -- -- 90
2020-01-08 22:00:00 -0.1 0 Calma 4 Este 0 -- -- 89
2020-01-08 21:00:00 0.7 0 Calma 5 Sudeste 0 -- -- 84
2020-01-08 20:00:00 1.9 0 Calma 3 Sudeste 0 -- -- 79
2020-01-08 19:00:00 3.7 0 Calma 4 Este 0 -- -- 72
2020-01-08 18:00:00 6.8 0 Calma 17 Oeste 0 -- -- 60
2020-01-08 17:00:00 11.4 10 Oeste 21 Sudoeste 0 -- -- 42
2020-01-08 16:00:00 13.7 13 Oeste 24 Sudoeste 0 -- -- 36
2020-01-08 15:00:00 13.9 15 Oeste 26 Oeste 0 -- -- 36
2020-01-08 14:00:00 13.5 17 Oeste 26 Oeste 0 -- -- 37
2020-01-08 13:00:00 12.4 12 Sudoeste 20 Sudoeste 0 -- -- 44
2020-01-08 12:00:00 8.5 3 Sur 5 Sur 0 -- -- 57
2020-01-08 11:00:00 1.4 4 Sudeste 6 Noroeste 0 -- -- 83
2020-01-08 10:00:00 -0.7 2 Sudoeste 6 Sudeste 0 -- -- 87
2020-01-08 09:00:00 -0.8 0 Calma 5 Sudoeste 0 -- -- 85
2020-01-08 08:00:00 -0.4 3 Este 9 Sur 0 -- -- 82
2020-01-08 07:00:00 -1.2 2 Este 6 Sudeste 0 -- -- 87
2020-01-08 06:00:00 -1 3 Norte 7 Este 0 -- -- 85
2020-01-08 05:00:00 -0.7 2 Sudeste 6 Sudeste 0 -- -- 84
2020-01-08 04:00:00 -0.3 0 Calma 7 Nordeste 0 -- -- 82
2020-01-08 03:00:00 0.1 3 Norte 8 Oeste 0 -- -- 81
2020-01-08 02:00:00 0.3 0 Calma 8 Este 0 -- -- 81
2020-01-08 01:00:00 0.6 0 Calma 8 Sudeste 0 -- -- 80
2020-01-08 00:00:00 1.7 3 Nordeste 6 Sur 0 -- -- 76
2020-01-07 23:00:00 3.9 0 Calma 6 Sudeste 0 -- -- 69
2020-01-07 22:00:00 6.5 2 Noroeste 13 Nordeste 0 -- -- 59
2020-01-07 21:00:00 10.1 7 Nordeste 17 Este 0 -- -- 47
2020-01-07 20:00:00 5.6 3 Sudoeste 14 Nordeste 0 -- -- 59
2020-01-07 19:00:00 9.2 0 Calma 14 Nordeste 0 -- -- 41
2020-01-07 18:00:00 9.4 6 Nordeste 14 Este 0 -- -- 35
2020-01-07 17:00:00 10 3 Sudeste 8 Sudeste 0 -- -- 46
2020-01-07 16:00:00 13.8 3 Norte 7 Sudeste 0 -- -- 33
2020-01-07 15:00:00 14.3 2 Sudeste 7 Sur 0 -- -- 38
2020-01-07 14:00:00 12.8 3 Sudeste 8 Sudeste 0 -- -- 39
2020-01-07 13:00:00 9.9 3 Sudeste 6 Sudeste 0 -- -- 46
2020-01-07 12:00:00 4.3 2 Sudeste 9 Sudeste 0 -- -- 65
2020-01-07 11:00:00 -2.3 0 Calma 4 Sur 0 -- -- 93
2020-01-07 10:00:00 -3.9 0 Calma 5 Norte 0 -- -- 92
2020-01-07 09:00:00 -4.4 3 Noroeste 8 Sudeste 0 -- -- 91
2020-01-07 08:00:00 -4.6 2 Sudeste 8 Este 0 -- -- 91
2020-01-07 07:00:00 -4.6 0 Calma 6 Norte 0 -- -- 91
2020-01-07 06:00:00 -4.5 0 Calma 5 Sudeste 0 -- -- 91
2020-01-07 05:00:00 -4 0 Calma 5 Sudeste 0 -- -- 91
2020-01-07 04:00:00 -4 2 Oeste 5 Norte 0 -- -- 91
2020-01-07 03:00:00 -3.6 2 Este 7 Sudeste 0 -- -- 88
2020-01-07 02:00:00 -3.2 2 Noroeste 6 Sudeste 0 -- -- 90
2020-01-07 01:00:00 -3.1 3 Nordeste 7 Sudeste 0 -- -- 90
2020-01-07 00:00:00 -2.5 4 Norte 6 Sudeste 0 -- -- 89
2020-01-06 23:00:00 -2 3 Sudoeste 9 Sur 0 -- -- 89
2020-01-06 22:00:00 -1.5 0 Calma 6 Sudeste 0 -- -- 88
2020-01-06 21:00:00 -1.1 3 Sudeste 5 Sudeste 0 -- -- 86
2020-01-06 20:00:00 0.1 2 Este 6 Sur 0 -- -- 81
2020-01-06 19:00:00 1.6 0 Calma 8 Sudeste 0 -- -- 75
2020-01-06 18:00:00 3.9 0 Calma 3 Norte 0 -- -- 68
2020-01-06 17:00:00 8 0 Calma 4 Sur 0 -- -- 53
2020-01-06 16:00:00 12.3 3 Sur 6 Sudeste 0 -- -- 43
2020-01-06 15:00:00 13 3 Sur 8 Sur 0 -- -- 36
2020-01-06 14:00:00 11.7 3 Sudeste 6 Sur 0 -- -- 37
2020-01-06 13:00:00 9 2 Sudeste 5 Sur 0 -- -- 51
2020-01-06 12:00:00 4.5 0 Calma 3 Este 0 -- -- 67
2020-01-06 11:00:00 -2.7 0 Calma 2 Sur 0 -- -- 100
2020-01-06 10:00:00 -3.5 0 Calma 3 Este 0 -- -- 96